createdAt,value
2019-03-24T00:01:19.037Z,4.10
2019-03-24T00:03:51.154Z,4.00
2019-03-24T00:06:22.167Z,3.90
2019-03-24T00:08:59.489Z,4.00
2019-03-24T00:11:34.888Z,4.00
2019-03-24T00:14:08.458Z,4.10
2019-03-24T00:16:38.353Z,4.10
2019-03-24T00:19:12.913Z,4.10
2019-03-24T00:21:48.575Z,4.10
2019-03-24T00:24:24.031Z,4.10
2019-03-24T00:26:59.299Z,4.10
2019-03-24T00:29:34.281Z,4.00
2019-03-24T00:32:09.218Z,4.10
2019-03-24T00:34:48.179Z,4.00
2019-03-24T00:37:23.584Z,4.00
2019-03-24T00:39:56.032Z,4.10
2019-03-24T00:42:28.320Z,4.00
2019-03-24T00:44:59.438Z,4.00
2019-03-24T00:47:32.318Z,4.00
2019-03-24T00:50:07.715Z,4.00
2019-03-24T00:52:44.736Z,4.00
2019-03-24T00:55:22.175Z,4.00
2019-03-24T00:57:56.775Z,3.90
2019-03-24T01:00:52.151Z,3.80
2019-03-24T01:04:02.559Z,3.80
2019-03-24T01:07:13.519Z,3.80
2019-03-24T01:10:23.719Z,3.80
2019-03-24T01:12:59.519Z,3.70
2019-03-24T01:15:35.875Z,3.70
2019-03-24T01:18:16.959Z,3.70
2019-03-24T01:20:49.151Z,3.70
2019-03-24T01:23:20.499Z,3.70
2019-03-24T01:25:52.251Z,3.60
2019-03-24T01:28:28.710Z,3.60
2019-03-24T01:31:01.355Z,3.60
2019-03-24T01:33:32.554Z,3.50
2019-03-24T01:36:03.685Z,3.50
2019-03-24T01:38:39.014Z,3.50
2019-03-24T01:41:17.890Z,3.60
2019-03-24T01:43:53.311Z,3.50
2019-03-24T01:46:29.410Z,3.50
2019-03-24T01:49:03.776Z,3.50
2019-03-24T01:51:36.734Z,3.60
2019-03-24T01:54:10.658Z,3.50
2019-03-24T01:56:46.247Z,3.50
2019-03-24T01:59:20.491Z,3.50
2019-03-24T02:01:57.857Z,3.40
2019-03-24T02:04:31.366Z,3.40
2019-03-24T02:07:09.570Z,3.50
2019-03-24T02:09:48.230Z,3.50
2019-03-24T02:12:24.047Z,3.40
2019-03-24T02:14:57.091Z,3.50
2019-03-24T02:17:28.322Z,3.40
2019-03-24T02:20:07.791Z,3.40
2019-03-24T02:22:43.170Z,3.40
2019-03-24T02:25:14.430Z,3.40
2019-03-24T02:27:48.894Z,3.40
2019-03-24T02:30:21.583Z,3.30
2019-03-24T02:32:54.214Z,3.20
2019-03-24T02:35:31.241Z,3.20
2019-03-24T02:38:07.590Z,3.20
2019-03-24T02:40:43.010Z,3.10
2019-03-24T02:43:15.072Z,3.10
2019-03-24T02:45:48.816Z,3.00
2019-03-24T02:48:24.159Z,3.00
2019-03-24T02:50:58.784Z,3.00
2019-03-24T02:53:36.484Z,2.90
2019-03-24T02:56:12.702Z,2.80
2019-03-24T02:58:44.853Z,2.80
2019-03-24T03:01:35.711Z,2.80
2019-03-24T03:04:09.274Z,2.80
2019-03-24T03:06:41.019Z,2.80
2019-03-24T03:09:16.903Z,2.70
2019-03-24T03:11:53.863Z,2.70
2019-03-24T03:14:26.967Z,2.70
2019-03-24T03:16:58.709Z,2.70
2019-03-24T03:19:33.212Z,2.70
2019-03-24T03:22:04.831Z,2.70
2019-03-24T03:24:37.859Z,2.70
2019-03-24T03:27:13.290Z,2.70
2019-03-24T03:29:46.857Z,2.70
2019-03-24T03:32:22.274Z,2.60
2019-03-24T03:34:56.676Z,2.60
2019-03-24T03:37:32.357Z,2.50
2019-03-24T03:40:05.892Z,2.50
2019-03-24T03:42:40.682Z,2.60
2019-03-24T03:45:20.502Z,2.60
2019-03-24T03:47:53.853Z,2.50
2019-03-24T03:50:25.381Z,2.50
2019-03-24T03:52:56.984Z,2.50
2019-03-24T03:55:28.879Z,2.50
2019-03-24T03:58:00.943Z,2.40
2019-03-24T04:00:38.561Z,2.30
2019-03-24T04:03:30.536Z,2.30
2019-03-24T04:06:12.519Z,2.20
2019-03-24T04:09:01.904Z,2.20
2019-03-24T04:11:42.225Z,2.20
2019-03-24T04:14:19.008Z,2.20
2019-03-24T04:17:06.310Z,2.20
2019-03-24T04:19:31.808Z,2.20
2019-03-24T04:22:07.618Z,2.20
2019-03-24T04:24:42.975Z,2.20
2019-03-24T04:27:14.107Z,2.20
2019-03-24T04:29:45.714Z,2.20
2019-03-24T04:32:18.026Z,2.20
2019-03-24T04:34:50.624Z,2.20
2019-03-24T04:37:26.560Z,2.30
2019-03-24T04:40:03.953Z,2.30
2019-03-24T04:42:37.183Z,2.20
2019-03-24T04:45:12.964Z,2.20
2019-03-24T04:47:48.263Z,2.20
2019-03-24T04:50:21.700Z,2.20
2019-03-24T04:53:01.992Z,2.20
2019-03-24T04:55:34.717Z,2.20
2019-03-24T04:58:08.656Z,2.20
2019-03-24T05:00:44.567Z,2.20
2019-03-24T05:03:20.143Z,2.20
2019-03-24T05:05:54.831Z,2.30
2019-03-24T05:08:26.033Z,2.20
2019-03-24T05:10:57.019Z,2.20
2019-03-24T05:13:27.874Z,2.20
2019-03-24T05:15:59.598Z,2.30
2019-03-24T05:18:31.734Z,2.30
2019-03-24T05:21:02.911Z,2.30
2019-03-24T05:23:37.696Z,2.20
2019-03-24T05:26:14.079Z,2.20
2019-03-24T05:28:47.743Z,2.30
2019-03-24T05:31:22.062Z,2.30
2019-03-24T05:34:00.509Z,2.30
2019-03-24T05:36:35.295Z,2.40
2019-03-24T05:39:12.518Z,2.40
2019-03-24T05:41:49.791Z,2.40
2019-03-24T05:44:24.294Z,2.40
2019-03-24T05:46:55.757Z,2.40
2019-03-24T05:49:26.740Z,2.40
2019-03-24T05:51:57.384Z,2.50
2019-03-24T05:54:33.860Z,2.50
2019-03-24T05:57:09.795Z,2.50
2019-03-24T05:59:43.551Z,2.40
2019-03-24T06:02:17.798Z,2.50
2019-03-24T06:04:52.803Z,2.50
2019-03-24T06:07:23.346Z,2.50
2019-03-24T06:09:54.457Z,2.50
2019-03-24T06:12:25.282Z,2.60
2019-03-24T06:14:58.754Z,2.60
2019-03-24T06:17:36.017Z,2.70
2019-03-24T06:20:11.751Z,2.80
2019-03-24T06:22:48.037Z,2.90
2019-03-24T06:25:23.507Z,3.00
2019-03-24T06:27:58.666Z,3.10
2019-03-24T06:30:30.698Z,3.10
2019-03-24T06:33:01.651Z,3.10
2019-03-24T06:35:35.519Z,3.20
2019-03-24T06:38:11.107Z,3.30
2019-03-24T06:40:45.503Z,3.30
2019-03-24T06:43:17.811Z,3.40
2019-03-24T06:45:49.486Z,3.50
2019-03-24T06:48:19.725Z,3.50
2019-03-24T06:50:55.391Z,3.60
2019-03-24T06:53:32.751Z,3.70
2019-03-24T06:56:06.562Z,3.80
2019-03-24T06:58:40.298Z,3.80
2019-03-24T07:01:15.326Z,3.90
2019-03-24T07:03:53.863Z,4.00
2019-03-24T07:06:27.692Z,4.00
2019-03-24T07:09:01.540Z,4.10
2019-03-24T07:11:38.091Z,4.20
2019-03-24T07:14:15.519Z,4.20
2019-03-24T07:16:51.366Z,4.30
2019-03-24T07:19:26.811Z,4.30
2019-03-24T07:22:02.082Z,4.40
2019-03-24T07:24:37.248Z,4.40
2019-03-24T07:27:12.675Z,4.50
2019-03-24T07:29:44.806Z,4.50
2019-03-24T07:32:20.107Z,4.60
2019-03-24T07:34:53.814Z,4.70
2019-03-24T07:37:24.906Z,4.80
2019-03-24T07:39:59.262Z,4.80
2019-03-24T07:42:36.389Z,4.80
2019-03-24T07:45:12.110Z,4.90
2019-03-24T07:47:45.102Z,5.00
2019-03-24T07:50:20.479Z,5.00
2019-03-24T07:52:56.108Z,5.00
2019-03-24T07:55:32.897Z,5.10
2019-03-24T07:58:04.510Z,5.10
2019-03-24T08:00:36.536Z,5.20
2019-03-24T08:03:08.575Z,5.20
2019-03-24T08:05:40.281Z,5.30
2019-03-24T08:08:16.639Z,5.30
2019-03-24T08:10:54.858Z,5.30
2019-03-24T08:13:32.322Z,5.40
2019-03-24T08:16:09.855Z,5.50
2019-03-24T08:18:45.163Z,5.60
2019-03-24T08:21:19.653Z,5.70
2019-03-24T08:23:50.110Z,5.70
2019-03-24T08:26:23.262Z,5.80
2019-03-24T08:29:03.456Z,5.80
2019-03-24T08:31:39.263Z,5.90
2019-03-24T08:34:12.622Z,5.90
2019-03-24T08:36:44.763Z,5.90
2019-03-24T08:39:16.002Z,5.90
2019-03-24T08:41:53.095Z,5.90
2019-03-24T08:44:28.354Z,6.00
2019-03-24T08:47:03.681Z,6.00
2019-03-24T08:49:38.503Z,6.10
2019-03-24T08:52:10.706Z,6.10
2019-03-24T08:54:43.922Z,6.10
2019-03-24T08:57:18.277Z,6.10
2019-03-24T08:59:55.680Z,6.20
2019-03-24T09:02:31.052Z,6.20
2019-03-24T09:05:05.378Z,6.20
2019-03-24T09:07:35.992Z,6.30
2019-03-24T09:10:11.647Z,6.40
2019-03-24T09:12:48.287Z,6.40
2019-03-24T09:15:23.519Z,6.50
2019-03-24T09:17:58.687Z,6.50
2019-03-24T09:20:52.543Z,6.50
2019-03-24T09:23:25.416Z,6.60
2019-03-24T09:25:59.523Z,6.60
2019-03-24T09:28:29.828Z,6.60
2019-03-24T09:31:05.343Z,6.70
2019-03-24T09:33:42.559Z,6.80
2019-03-24T09:36:16.030Z,6.80
2019-03-24T09:38:52.466Z,6.80
2019-03-24T09:41:30.271Z,6.90
2019-03-24T09:44:02.124Z,7.00
2019-03-24T09:46:39.594Z,7.00
2019-03-24T09:49:14.272Z,7.10
2019-03-24T09:51:48.790Z,7.10
2019-03-24T09:54:24.166Z,7.10
2019-03-24T09:56:59.774Z,7.20
2019-03-24T09:59:33.162Z,7.20
2019-03-24T10:02:07.757Z,7.20
2019-03-24T10:04:42.123Z,7.10
2019-03-24T10:07:15.250Z,7.20
2019-03-24T10:09:46.447Z,7.30
2019-03-24T10:12:21.639Z,7.40
2019-03-24T10:14:56.072Z,7.50
2019-03-24T10:17:28.191Z,7.50
2019-03-24T10:20:03.167Z,7.50
2019-03-24T10:22:37.173Z,7.60
2019-03-24T10:25:13.151Z,7.70
2019-03-24T10:27:44.426Z,7.80
2019-03-24T10:30:15.746Z,7.80
2019-03-24T10:32:47.898Z,7.80
2019-03-24T10:35:18.973Z,7.80
2019-03-24T10:37:52.714Z,7.80
2019-03-24T10:40:28.835Z,7.90
2019-03-24T10:43:04.418Z,7.90
2019-03-24T10:45:39.807Z,7.90
2019-03-24T10:48:14.235Z,8.00
2019-03-24T10:50:44.485Z,8.10
2019-03-24T10:53:15.227Z,8.10
2019-03-24T10:55:45.390Z,8.10
2019-03-24T10:58:18.218Z,8.10
2019-03-24T11:00:55.138Z,8.10
2019-03-24T11:03:30.827Z,8.10
2019-03-24T11:06:05.351Z,8.20
2019-03-24T11:08:39.839Z,8.30
2019-03-24T11:11:14.187Z,8.40
2019-03-24T11:13:45.202Z,8.50
2019-03-24T11:16:19.075Z,8.50
2019-03-24T11:18:49.895Z,8.60
2019-03-24T11:21:20.975Z,8.60
2019-03-24T11:23:58.395Z,8.60
2019-03-24T11:26:31.993Z,8.70
2019-03-24T11:29:07.851Z,8.60
2019-03-24T11:31:41.610Z,8.60
2019-03-24T11:34:12.458Z,8.70
2019-03-24T11:36:47.746Z,8.80
2019-03-24T11:39:21.690Z,8.90
2019-03-24T11:41:54.175Z,8.90
2019-03-24T11:44:30.854Z,9.00
2019-03-24T11:47:07.263Z,9.10
2019-03-24T11:49:45.922Z,9.20
2019-03-24T11:52:15.678Z,9.20
2019-03-24T11:54:49.346Z,9.40
2019-03-24T11:57:21.214Z,9.50
2019-03-24T11:59:56.645Z,9.50
2019-03-24T12:02:33.182Z,9.40
2019-03-24T12:05:04.406Z,9.40
2019-03-24T12:07:35.494Z,9.40
2019-03-24T12:10:06.687Z,9.50
2019-03-24T12:12:36.937Z,9.60
2019-03-24T12:15:11.116Z,9.60
2019-03-24T12:17:44.556Z,9.60
2019-03-24T12:20:17.831Z,9.60
2019-03-24T12:22:50.008Z,9.70
2019-03-24T12:25:21.193Z,9.60
2019-03-24T12:27:52.248Z,9.60
2019-03-24T12:30:28.226Z,9.60
2019-03-24T12:33:03.769Z,9.60
2019-03-24T12:35:41.795Z,9.60
2019-03-24T12:38:17.195Z,9.60
2019-03-24T12:40:51.779Z,9.60
2019-03-24T12:43:23.787Z,9.60
2019-03-24T12:45:55.090Z,9.70
2019-03-24T12:48:26.032Z,9.70
2019-03-24T12:51:00.351Z,9.80
2019-03-24T12:53:36.668Z,9.80
2019-03-24T12:56:11.017Z,9.70
2019-03-24T12:58:42.397Z,9.70
2019-03-24T13:01:22.881Z,9.60
2019-03-24T13:03:56.704Z,9.60
2019-03-24T13:06:30.248Z,9.50
2019-03-24T13:09:01.938Z,9.50
2019-03-24T13:11:33.479Z,9.50
2019-03-24T13:14:07.873Z,9.50
2019-03-24T13:16:39.026Z,9.40
2019-03-24T13:19:11.879Z,9.40
2019-03-24T13:21:46.481Z,9.30
2019-03-24T13:24:39.782Z,9.20
2019-03-24T13:27:13.649Z,9.10
2019-03-24T13:29:49.992Z,9.10
2019-03-24T13:32:25.791Z,9.10
2019-03-24T13:35:05.095Z,9.10
2019-03-24T13:37:39.616Z,9.10
2019-03-24T13:40:12.167Z,9.10
2019-03-24T13:42:43.656Z,9.10
2019-03-24T13:45:13.958Z,9.00
2019-03-24T13:47:45.132Z,9.10
2019-03-24T13:50:31.028Z,9.00
2019-03-24T13:52:59.779Z,9.10
2019-03-24T13:55:40.126Z,9.10
2019-03-24T13:58:15.524Z,9.10
2019-03-24T14:00:53.637Z,9.10
2019-03-24T14:03:31.998Z,9.10
2019-03-24T14:06:05.086Z,9.10
2019-03-24T14:08:42.647Z,9.10
2019-03-24T14:11:20.295Z,9.10
2019-03-24T14:13:56.713Z,9.10
2019-03-24T14:16:30.971Z,9.20
2019-03-24T14:19:02.667Z,9.30
2019-03-24T14:21:39.647Z,9.30
2019-03-24T14:24:13.855Z,9.30
2019-03-24T14:26:51.211Z,9.20
2019-03-24T14:29:23.177Z,9.20
2019-03-24T14:31:54.110Z,9.10
2019-03-24T14:34:25.094Z,9.00
2019-03-24T14:36:55.931Z,9.10
2019-03-24T14:39:28.675Z,9.10
2019-03-24T14:42:00.216Z,9.10
2019-03-24T14:44:34.526Z,9.20
2019-03-24T14:47:09.828Z,9.20
2019-03-24T14:49:40.071Z,9.30
2019-03-24T14:52:12.735Z,9.30
2019-03-24T14:54:44.331Z,9.30
2019-03-24T14:57:18.526Z,9.40
2019-03-24T14:59:52.510Z,9.40
2019-03-24T15:02:44.012Z,9.40
2019-03-24T15:05:47.624Z,9.40
2019-03-24T15:08:47.838Z,9.40
2019-03-24T15:11:24.167Z,9.40
2019-03-24T15:14:00.511Z,9.40
2019-03-24T15:16:36.926Z,9.30
2019-03-24T15:19:11.582Z,9.20
2019-03-24T15:21:47.815Z,9.10
2019-03-24T15:24:18.987Z,9.00
2019-03-24T15:26:48.951Z,8.90
2019-03-24T15:29:23.326Z,8.90
2019-03-24T15:31:56.539Z,8.80
2019-03-24T15:34:27.691Z,8.70
2019-03-24T15:37:03.424Z,8.70
2019-03-24T15:39:36.014Z,8.60
2019-03-24T15:42:07.707Z,8.50
2019-03-24T15:44:38.990Z,8.50
2019-03-24T15:47:12.451Z,8.50
2019-03-24T15:49:50.503Z,8.50
2019-03-24T15:52:25.438Z,8.40
2019-03-24T15:55:00.735Z,8.40
2019-03-24T15:57:37.342Z,8.40
2019-03-24T16:00:13.531Z,8.30
2019-03-24T16:02:49.663Z,8.30
2019-03-24T16:05:29.607Z,8.30
2019-03-24T16:08:01.975Z,8.30
2019-03-24T16:10:35.362Z,8.20
2019-03-24T16:13:07.126Z,8.20
2019-03-24T16:15:42.530Z,8.20
2019-03-24T16:18:16.383Z,8.10
2019-03-24T16:20:49.247Z,8.10
2019-03-24T16:23:22.086Z,8.00
2019-03-24T16:25:56.548Z,7.90
2019-03-24T16:28:37.089Z,7.80
2019-03-24T16:31:15.331Z,7.80
2019-03-24T16:33:48.890Z,7.70
2019-03-24T16:36:19.424Z,7.60
2019-03-24T16:38:50.327Z,7.50
2019-03-24T16:41:22.537Z,7.40
2019-03-24T16:43:58.092Z,7.40
2019-03-24T16:46:32.275Z,7.30
2019-03-24T16:49:03.347Z,7.20
2019-03-24T16:51:38.742Z,7.20
2019-03-24T16:54:12.418Z,7.10
2019-03-24T16:56:45.925Z,7.10
2019-03-24T16:59:16.719Z,7.00
2019-03-24T17:01:47.812Z,7.00
2019-03-24T17:04:20.506Z,6.90
2019-03-24T17:06:55.340Z,6.90
2019-03-24T17:09:31.811Z,6.80
2019-03-24T17:12:09.850Z,6.80
2019-03-24T17:14:46.157Z,6.70
2019-03-24T17:17:20.511Z,6.60
2019-03-24T17:19:52.320Z,6.60
2019-03-24T17:22:26.111Z,6.60
2019-03-24T17:24:56.619Z,6.50
2019-03-24T17:27:29.183Z,6.40
2019-03-24T17:30:08.010Z,6.40
2019-03-24T17:32:43.263Z,6.30
2019-03-24T17:35:20.104Z,6.30
2019-03-24T17:37:56.319Z,6.30
2019-03-24T17:40:28.128Z,6.30
2019-03-24T17:43:01.010Z,6.20
2019-03-24T17:45:34.190Z,6.10
2019-03-24T17:48:04.898Z,6.10
2019-03-24T17:50:39.174Z,6.00
2019-03-24T17:53:14.847Z,6.00
2019-03-24T17:55:46.779Z,6.00
2019-03-24T17:58:18.533Z,5.90
2019-03-24T18:00:53.903Z,5.90
2019-03-24T18:03:25.502Z,5.90
2019-03-24T18:06:00.447Z,5.90
2019-03-24T18:08:31.251Z,5.80
2019-03-24T18:11:03.281Z,5.80
2019-03-24T18:13:33.603Z,5.80
2019-03-24T18:16:04.119Z,5.80
2019-03-24T18:18:37.964Z,5.70
2019-03-24T18:21:16.470Z,5.60
2019-03-24T18:23:49.470Z,5.60
2019-03-24T18:26:23.391Z,5.60
2019-03-24T18:28:54.966Z,5.50
2019-03-24T18:31:26.090Z,5.50
2019-03-24T18:33:57.330Z,5.50
2019-03-24T18:36:28.959Z,5.50
2019-03-24T18:39:06.175Z,5.40
2019-03-24T18:41:38.322Z,5.40
2019-03-24T18:44:10.463Z,5.40
2019-03-24T18:46:43.367Z,5.40
2019-03-24T18:49:17.634Z,5.40
2019-03-24T18:51:50.435Z,5.40
2019-03-24T18:54:25.907Z,5.40
2019-03-24T18:57:01.406Z,5.40
2019-03-24T18:59:33.483Z,5.40
2019-03-24T19:02:05.599Z,5.40
2019-03-24T19:04:37.665Z,5.40
2019-03-24T19:07:12.191Z,5.30
2019-03-24T19:09:47.786Z,5.40
2019-03-24T19:12:22.079Z,5.30
2019-03-24T19:14:59.330Z,5.20
2019-03-24T19:17:35.059Z,5.20
2019-03-24T19:20:10.159Z,5.10
2019-03-24T19:22:43.532Z,5.10
2019-03-24T19:25:14.920Z,5.00
2019-03-24T19:27:46.144Z,5.00
2019-03-24T19:30:17.193Z,5.10
2019-03-24T19:32:51.074Z,5.00
2019-03-24T19:35:25.986Z,5.00
2019-03-24T19:38:01.531Z,5.10
2019-03-24T19:40:37.736Z,5.10
2019-03-24T19:43:13.162Z,5.00
2019-03-24T19:45:46.143Z,5.00
2019-03-24T19:48:16.787Z,5.10
2019-03-24T19:50:48.445Z,5.10
2019-03-24T19:53:26.270Z,5.00
2019-03-24T19:55:59.514Z,4.90
2019-03-24T19:58:30.003Z,4.90
2019-03-24T20:01:05.411Z,4.90
2019-03-24T20:03:36.743Z,4.90
2019-03-24T20:06:10.427Z,4.90
2019-03-24T20:08:45.117Z,4.90
2019-03-24T20:11:20.318Z,4.80
2019-03-24T20:13:51.346Z,4.70
2019-03-24T20:16:22.859Z,4.80
2019-03-24T20:18:58.402Z,4.70
2019-03-24T20:21:28.643Z,4.70
2019-03-24T20:23:59.666Z,4.70
2019-03-24T20:26:31.463Z,4.70
2019-03-24T20:29:06.817Z,4.60
2019-03-24T20:31:43.839Z,4.60
2019-03-24T20:34:19.275Z,4.50
2019-03-24T20:36:54.015Z,4.40
2019-03-24T20:39:33.215Z,4.40
2019-03-24T20:42:09.544Z,4.40
2019-03-24T20:44:43.967Z,4.40
2019-03-24T20:47:18.815Z,4.40
2019-03-24T20:49:49.370Z,4.40
2019-03-24T20:52:25.986Z,4.40
2019-03-24T20:55:04.193Z,4.40
2019-03-24T20:57:36.779Z,4.40
2019-03-24T21:00:10.858Z,4.30
2019-03-24T21:02:48.160Z,4.30
2019-03-24T21:05:26.560Z,4.10
2019-03-24T21:08:00.159Z,4.10
2019-03-24T21:10:35.999Z,4.10
2019-03-24T21:13:10.088Z,4.00
2019-03-24T21:15:45.926Z,4.10
2019-03-24T21:18:18.786Z,4.00
2019-03-24T21:20:53.184Z,4.00
2019-03-24T21:23:29.545Z,4.00
2019-03-24T21:26:02.538Z,4.10
2019-03-24T21:28:39.455Z,4.10
2019-03-24T21:31:14.418Z,4.10
2019-03-24T21:33:49.018Z,4.10
2019-03-24T21:36:23.240Z,4.10
2019-03-24T21:38:58.921Z,4.10
2019-03-24T21:41:30.606Z,4.10
2019-03-24T21:44:05.887Z,4.00
2019-03-24T21:46:39.390Z,4.00
2019-03-24T21:49:14.148Z,4.00
2019-03-24T21:51:50.658Z,3.90
2019-03-24T21:54:26.113Z,3.90
2019-03-24T21:57:01.514Z,3.80
2019-03-24T21:59:35.713Z,3.80
2019-03-24T22:02:12.137Z,3.90
2019-03-24T22:04:43.499Z,3.80
2019-03-24T22:07:16.759Z,3.70
2019-03-24T22:09:51.136Z,3.70
2019-03-24T22:12:24.930Z,3.60
2019-03-24T22:14:57.100Z,3.60
2019-03-24T22:17:32.032Z,3.50
2019-03-24T22:20:04.036Z,3.50
2019-03-24T22:22:37.027Z,3.50
2019-03-24T22:25:11.107Z,3.40
2019-03-24T22:27:45.283Z,3.30
2019-03-24T22:30:20.350Z,3.30
2019-03-24T22:32:55.743Z,3.30
2019-03-24T22:35:28.438Z,3.20
2019-03-24T22:37:58.312Z,3.20
2019-03-24T22:40:29.305Z,3.30
2019-03-24T22:43:00.452Z,3.20
2019-03-24T22:45:34.018Z,3.20
2019-03-24T22:48:09.727Z,3.10
2019-03-24T22:50:45.886Z,3.10
2019-03-24T22:53:17.610Z,3.10
2019-03-24T22:55:49.044Z,3.10
2019-03-24T22:58:20.602Z,3.00
2019-03-24T23:00:57.442Z,3.00
2019-03-24T23:03:31.008Z,3.00
2019-03-24T23:06:02.211Z,3.00
2019-03-24T23:08:34.655Z,2.90
2019-03-24T23:11:07.963Z,2.80
2019-03-24T23:13:40.006Z,2.80
2019-03-24T23:16:13.951Z,2.80
2019-03-24T23:18:45.346Z,2.70
2019-03-24T23:21:15.210Z,2.80
2019-03-24T23:23:53.419Z,2.70
2019-03-24T23:26:24.870Z,2.70
2019-03-24T23:28:55.518Z,2.60
2019-03-24T23:31:26.627Z,2.60
2019-03-24T23:33:57.790Z,2.60
2019-03-24T23:36:29.686Z,2.50
2019-03-24T23:38:59.940Z,2.50
2019-03-24T23:41:30.546Z,2.50
2019-03-24T23:44:03.990Z,2.40
2019-03-24T23:46:37.771Z,2.40
2019-03-24T23:49:15.135Z,2.30
2019-03-24T23:51:50.243Z,2.30
2019-03-24T23:54:27.599Z,2.40
2019-03-24T23:57:01.039Z,2.40
2019-03-24T23:59:31.831Z,2.30
